sensor_id;sensor_type;location;lat;lon;timestamp;P1;durP1;ratioP1;P2;durP2;ratioP2
41713;SDS011;27401;47.384;13.666;2023-08-07T00:01:51;0.00;;;0.00;;
41713;SDS011;27401;47.384;13.666;2023-08-07T00:04:16;0.10;;;0.10;;
41713;SDS011;27401;47.384;13.666;2023-08-07T00:06:42;0.15;;;0.10;;
41713;SDS011;27401;47.384;13.666;2023-08-07T00:09:07;0.13;;;0.10;;
41713;SDS011;27401;47.384;13.666;2023-08-07T00:11:33;0.08;;;0.05;;
41713;SDS011;27401;47.384;13.666;2023-08-07T00:13:59;0.20;;;0.00;;
41713;SDS011;27401;47.384;13.666;2023-08-07T00:16:25;0.03;;;0.03;;
41713;SDS011;27401;47.384;13.666;2023-08-07T00:18:51;0.38;;;0.10;;
41713;SDS011;27401;47.384;13.666;2023-08-07T00:21:21;0.10;;;0.10;;
41713;SDS011;27401;47.384;13.666;2023-08-07T00:23:47;0.28;;;0.10;;
41713;SDS011;27401;47.384;13.666;2023-08-07T00:26:12;1.75;;;0.13;;
41713;SDS011;27401;47.384;13.666;2023-08-07T00:28:38;0.13;;;0.10;;
41713;SDS011;27401;47.384;13.666;2023-08-07T00:31:03;0.45;;;0.10;;
41713;SDS011;27401;47.384;13.666;2023-08-07T00:33:29;0.00;;;0.00;;
41713;SDS011;27401;47.384;13.666;2023-08-07T00:35:54;0.73;;;0.00;;
41713;SDS011;27401;47.384;13.666;2023-08-07T00:38:20;0.17;;;0.10;;
41713;SDS011;27401;47.384;13.666;2023-08-07T00:40:46;0.10;;;0.10;;
41713;SDS011;27401;47.384;13.666;2023-08-07T00:43:12;0.40;;;0.10;;
41713;SDS011;27401;47.384;13.666;2023-08-07T00:45:38;0.00;;;0.00;;
41713;SDS011;27401;47.384;13.666;2023-08-07T00:48:11;0.10;;;0.10;;
41713;SDS011;27401;47.384;13.666;2023-08-07T00:50:37;0.05;;;0.05;;
41713;SDS011;27401;47.384;13.666;2023-08-07T00:53:04;0.20;;;0.10;;
41713;SDS011;27401;47.384;13.666;2023-08-07T00:55:29;0.30;;;0.10;;
41713;SDS011;27401;47.384;13.666;2023-08-07T00:57:56;0.08;;;0.08;;
41713;SDS011;27401;47.384;13.666;2023-08-07T01:00:23;9.95;;;6.93;;
41713;SDS011;27401;47.384;13.666;2023-08-07T01:02:50;6.85;;;4.50;;
41713;SDS011;27401;47.384;13.666;2023-08-07T01:05:16;0.85;;;0.32;;
41713;SDS011;27401;47.384;13.666;2023-08-07T01:07:43;0.00;;;0.00;;
41713;SDS011;27401;47.384;13.666;2023-08-07T01:10:09;0.20;;;0.10;;
41713;SDS011;27401;47.384;13.666;2023-08-07T01:12:48;0.10;;;0.10;;
41713;SDS011;27401;47.384;13.666;2023-08-07T01:15:25;0.10;;;0.10;;
41713;SDS011;27401;47.384;13.666;2023-08-07T01:17:56;0.10;;;0.10;;
41713;SDS011;27401;47.384;13.666;2023-08-07T01:20:23;0.00;;;0.00;;
41713;SDS011;27401;47.384;13.666;2023-08-07T01:22:48;0.57;;;0.20;;
41713;SDS011;27401;47.384;13.666;2023-08-07T01:25:14;0.30;;;0.10;;
41713;SDS011;27401;47.384;13.666;2023-08-07T01:28:02;0.20;;;0.20;;
41713;SDS011;27401;47.384;13.666;2023-08-07T01:30:41;0.10;;;0.03;;
41713;SDS011;27401;47.384;13.666;2023-08-07T01:35:53;1.65;;;0.10;;
41713;SDS011;27401;47.384;13.666;2023-08-07T01:38:19;0.08;;;0.08;;
41713;SDS011;27401;47.384;13.666;2023-08-07T01:40:47;0.05;;;0.05;;
41713;SDS011;27401;47.384;13.666;2023-08-07T01:43:13;1.88;;;0.13;;
41713;SDS011;27401;47.384;13.666;2023-08-07T01:45:39;0.10;;;0.10;;
41713;SDS011;27401;47.384;13.666;2023-08-07T01:48:04;0.10;;;0.10;;
41713;SDS011;27401;47.384;13.666;2023-08-07T01:50:30;0.95;;;0.20;;
41713;SDS011;27401;47.384;13.666;2023-08-07T01:52:55;1.25;;;0.25;;
41713;SDS011;27401;47.384;13.666;2023-08-07T01:55:22;0.45;;;0.22;;
41713;SDS011;27401;47.384;13.666;2023-08-07T01:57:51;0.10;;;0.10;;
41713;SDS011;27401;47.384;13.666;2023-08-07T02:00:17;0.43;;;0.13;;
41713;SDS011;27401;47.384;13.666;2023-08-07T02:02:43;0.40;;;0.10;;
41713;SDS011;27401;47.384;13.666;2023-08-07T02:05:10;1.02;;;0.20;;
41713;SDS011;27401;47.384;13.666;2023-08-07T02:07:36;0.20;;;0.15;;
41713;SDS011;27401;47.384;13.666;2023-08-07T02:10:02;0.43;;;0.40;;
41713;SDS011;27401;47.384;13.666;2023-08-07T02:12:27;1.38;;;0.20;;
41713;SDS011;27401;47.384;13.666;2023-08-07T02:14:54;0.22;;;0.10;;
41713;SDS011;27401;47.384;13.666;2023-08-07T02:17:20;0.10;;;0.10;;
41713;SDS011;27401;47.384;13.666;2023-08-07T02:19:47;0.10;;;0.10;;
41713;SDS011;27401;47.384;13.666;2023-08-07T02:22:12;0.10;;;0.10;;
41713;SDS011;27401;47.384;13.666;2023-08-07T02:24:38;0.20;;;0.20;;
41713;SDS011;27401;47.384;13.666;2023-08-07T02:27:05;0.10;;;0.10;;
41713;SDS011;27401;47.384;13.666;2023-08-07T02:29:31;0.00;;;0.00;;
41713;SDS011;27401;47.384;13.666;2023-08-07T02:31:59;0.20;;;0.20;;
41713;SDS011;27401;47.384;13.666;2023-08-07T02:34:25;0.10;;;0.10;;
41713;SDS011;27401;47.384;13.666;2023-08-07T02:36:51;1.27;;;0.17;;
41713;SDS011;27401;47.384;13.666;2023-08-07T02:39:16;0.10;;;0.10;;
41713;SDS011;27401;47.384;13.666;2023-08-07T02:41:42;0.10;;;0.10;;
41713;SDS011;27401;47.384;13.666;2023-08-07T02:44:07;1.20;;;0.20;;
41713;SDS011;27401;47.384;13.666;2023-08-07T02:46:33;0.13;;;0.10;;
41713;SDS011;27401;47.384;13.666;2023-08-07T02:49:01;0.20;;;0.20;;
41713;SDS011;27401;47.384;13.666;2023-08-07T02:51:27;0.30;;;0.20;;
41713;SDS011;27401;47.384;13.666;2023-08-07T02:53:52;0.20;;;0.13;;
41713;SDS011;27401;47.384;13.666;2023-08-07T02:56:18;0.30;;;0.17;;
41713;SDS011;27401;47.384;13.666;2023-08-07T02:58:43;0.10;;;0.10;;
41713;SDS011;27401;47.384;13.666;2023-08-07T03:01:09;0.63;;;0.10;;
41713;SDS011;27401;47.384;13.666;2023-08-07T03:03:35;0.30;;;0.20;;
41713;SDS011;27401;47.384;13.666;2023-08-07T03:06:00;0.68;;;0.17;;
41713;SDS011;27401;47.384;13.666;2023-08-07T03:08:26;0.20;;;0.10;;
41713;SDS011;27401;47.384;13.666;2023-08-07T03:10:55;0.10;;;0.10;;
41713;SDS011;27401;47.384;13.666;2023-08-07T03:13:23;0.20;;;0.20;;
41713;SDS011;27401;47.384;13.666;2023-08-07T03:15:49;0.40;;;0.20;;
41713;SDS011;27401;47.384;13.666;2023-08-07T03:18:16;0.30;;;0.15;;
41713;SDS011;27401;47.384;13.666;2023-08-07T03:20:42;0.10;;;0.10;;
41713;SDS011;27401;47.384;13.666;2023-08-07T03:23:09;0.10;;;0.10;;
41713;SDS011;27401;47.384;13.666;2023-08-07T03:25:35;1.55;;;0.20;;
41713;SDS011;27401;47.384;13.666;2023-08-07T03:28:02;0.40;;;0.13;;
41713;SDS011;27401;47.384;13.666;2023-08-07T03:30:28;1.02;;;0.10;;
41713;SDS011;27401;47.384;13.666;2023-08-07T03:32:54;3.10;;;0.17;;
41713;SDS011;27401;47.384;13.666;2023-08-07T03:35:20;0.88;;;0.17;;
41713;SDS011;27401;47.384;13.666;2023-08-07T03:37:45;0.98;;;0.20;;
41713;SDS011;27401;47.384;13.666;2023-08-07T03:40:11;0.25;;;0.15;;
41713;SDS011;27401;47.384;13.666;2023-08-07T03:42:37;0.10;;;0.10;;
41713;SDS011;27401;47.384;13.666;2023-08-07T03:45:03;0.38;;;0.10;;
41713;SDS011;27401;47.384;13.666;2023-08-07T03:47:29;1.38;;;0.20;;
41713;SDS011;27401;47.384;13.666;2023-08-07T03:49:56;0.15;;;0.10;;
41713;SDS011;27401;47.384;13.666;2023-08-07T03:52:21;0.10;;;0.10;;
41713;SDS011;27401;47.384;13.666;2023-08-07T03:54:47;0.10;;;0.10;;
41713;SDS011;27401;47.384;13.666;2023-08-07T03:57:13;0.08;;;0.08;;
41713;SDS011;27401;47.384;13.666;2023-08-07T03:59:38;0.10;;;0.10;;
41713;SDS011;27401;47.384;13.666;2023-08-07T04:02:04;0.00;;;0.00;;
41713;SDS011;27401;47.384;13.666;2023-08-07T04:04:30;0.08;;;0.00;;
41713;SDS011;27401;47.384;13.666;2023-08-07T04:06:56;0.03;;;0.03;;
41713;SDS011;27401;47.384;13.666;2023-08-07T04:09:21;1.23;;;0.00;;
41713;SDS011;27401;47.384;13.666;2023-08-07T04:11:47;0.20;;;0.20;;
41713;SDS011;27401;47.384;13.666;2023-08-07T04:14:12;0.10;;;0.10;;
41713;SDS011;27401;47.384;13.666;2023-08-07T04:16:38;1.65;;;0.20;;
41713;SDS011;27401;47.384;13.666;2023-08-07T04:19:03;0.25;;;0.13;;
41713;SDS011;27401;47.384;13.666;2023-08-07T04:21:32;0.10;;;0.10;;
41713;SDS011;27401;47.384;13.666;2023-08-07T04:23:58;0.52;;;0.10;;
41713;SDS011;27401;47.384;13.666;2023-08-07T04:26:25;0.10;;;0.00;;
41713;SDS011;27401;47.384;13.666;2023-08-07T04:28:51;0.10;;;0.10;;
41713;SDS011;27401;47.384;13.666;2023-08-07T04:31:17;0.10;;;0.10;;
41713;SDS011;27401;47.384;13.666;2023-08-07T04:33:43;0.00;;;0.00;;
41713;SDS011;27401;47.384;13.666;2023-08-07T04:36:08;0.08;;;0.08;;
41713;SDS011;27401;47.384;13.666;2023-08-07T04:38:34;0.10;;;0.10;;
41713;SDS011;27401;47.384;13.666;2023-08-07T04:40:59;0.17;;;0.10;;
41713;SDS011;27401;47.384;13.666;2023-08-07T04:43:25;0.35;;;0.13;;
41713;SDS011;27401;47.384;13.666;2023-08-07T04:45:50;2.20;;;0.20;;
41713;SDS011;27401;47.384;13.666;2023-08-07T04:48:16;0.10;;;0.10;;
41713;SDS011;27401;47.384;13.666;2023-08-07T04:50:43;0.10;;;0.10;;
41713;SDS011;27401;47.384;13.666;2023-08-07T04:53:08;0.10;;;0.10;;
41713;SDS011;27401;47.384;13.666;2023-08-07T04:55:34;1.00;;;0.20;;
41713;SDS011;27401;47.384;13.666;2023-08-07T04:57:59;0.50;;;0.10;;
41713;SDS011;27401;47.384;13.666;2023-08-07T05:00:27;0.60;;;0.10;;
41713;SDS011;27401;47.384;13.666;2023-08-07T05:02:53;0.57;;;0.13;;
41713;SDS011;27401;47.384;13.666;2023-08-07T05:05:18;0.13;;;0.13;;
41713;SDS011;27401;47.384;13.666;2023-08-07T05:07:46;0.10;;;0.10;;
41713;SDS011;27401;47.384;13.666;2023-08-07T05:10:12;0.10;;;0.10;;
41713;SDS011;27401;47.384;13.666;2023-08-07T05:12:38;0.68;;;0.10;;
41713;SDS011;27401;47.384;13.666;2023-08-07T05:15:03;0.10;;;0.10;;
41713;SDS011;27401;47.384;13.666;2023-08-07T05:17:29;0.50;;;0.05;;
41713;SDS011;27401;47.384;13.666;2023-08-07T05:19:56;0.10;;;0.10;;
41713;SDS011;27401;47.384;13.666;2023-08-07T05:22:21;0.00;;;0.00;;
41713;SDS011;27401;47.384;13.666;2023-08-07T05:24:47;0.00;;;0.00;;
41713;SDS011;27401;47.384;13.666;2023-08-07T05:27:13;1.38;;;0.17;;
41713;SDS011;27401;47.384;13.666;2023-08-07T05:29:39;0.10;;;0.10;;
41713;SDS011;27401;47.384;13.666;2023-08-07T05:34:37;0.25;;;0.00;;
41713;SDS011;27401;47.384;13.666;2023-08-07T05:37:02;0.10;;;0.10;;
41713;SDS011;27401;47.384;13.666;2023-08-07T05:39:28;0.30;;;0.20;;
41713;SDS011;27401;47.384;13.666;2023-08-07T05:41:54;0.10;;;0.10;;
41713;SDS011;27401;47.384;13.666;2023-08-07T05:44:19;0.88;;;0.10;;
41713;SDS011;27401;47.384;13.666;2023-08-07T05:46:45;0.30;;;0.30;;
41713;SDS011;27401;47.384;13.666;2023-08-07T05:49:11;0.25;;;0.15;;
41713;SDS011;27401;47.384;13.666;2023-08-07T05:51:36;0.43;;;0.20;;
41713;SDS011;27401;47.384;13.666;2023-08-07T05:54:02;0.20;;;0.20;;
41713;SDS011;27401;47.384;13.666;2023-08-07T05:56:27;0.22;;;0.20;;
41713;SDS011;27401;47.384;13.666;2023-08-07T05:58:53;0.30;;;0.10;;
41713;SDS011;27401;47.384;13.666;2023-08-07T06:01:19;0.20;;;0.10;;
41713;SDS011;27401;47.384;13.666;2023-08-07T06:03:44;0.35;;;0.20;;
41713;SDS011;27401;47.384;13.666;2023-08-07T06:06:10;1.00;;;0.10;;
41713;SDS011;27401;47.384;13.666;2023-08-07T06:08:36;0.10;;;0.10;;
41713;SDS011;27401;47.384;13.666;2023-08-07T06:11:01;1.13;;;0.10;;
41713;SDS011;27401;47.384;13.666;2023-08-07T06:15:58;0.15;;;0.10;;
41713;SDS011;27401;47.384;13.666;2023-08-07T06:18:24;0.10;;;0.00;;
41713;SDS011;27401;47.384;13.666;2023-08-07T06:20:49;0.35;;;0.10;;
41713;SDS011;27401;47.384;13.666;2023-08-07T06:23:15;0.32;;;0.10;;
41713;SDS011;27401;47.384;13.666;2023-08-07T06:25:41;0.08;;;0.05;;
41713;SDS011;27401;47.384;13.666;2023-08-07T06:28:06;0.32;;;0.00;;
41713;SDS011;27401;47.384;13.666;2023-08-07T06:30:32;0.43;;;0.30;;
41713;SDS011;27401;47.384;13.666;2023-08-07T06:32:57;0.10;;;0.10;;
41713;SDS011;27401;47.384;13.666;2023-08-07T06:35:23;0.00;;;0.00;;
41713;SDS011;27401;47.384;13.666;2023-08-07T06:37:48;0.00;;;0.00;;
41713;SDS011;27401;47.384;13.666;2023-08-07T06:40:14;0.20;;;0.20;;
41713;SDS011;27401;47.384;13.666;2023-08-07T06:42:40;0.10;;;0.00;;
41713;SDS011;27401;47.384;13.666;2023-08-07T06:45:05;0.55;;;0.20;;
41713;SDS011;27401;47.384;13.666;2023-08-07T06:47:31;0.00;;;0.00;;
41713;SDS011;27401;47.384;13.666;2023-08-07T06:49:57;0.00;;;0.00;;
41713;SDS011;27401;47.384;13.666;2023-08-07T06:52:23;0.50;;;0.08;;
41713;SDS011;27401;47.384;13.666;2023-08-07T06:54:48;0.30;;;0.10;;
41713;SDS011;27401;47.384;13.666;2023-08-07T06:57:14;0.10;;;0.10;;
41713;SDS011;27401;47.384;13.666;2023-08-07T06:59:39;0.08;;;0.00;;
41713;SDS011;27401;47.384;13.666;2023-08-07T07:02:05;0.00;;;0.00;;
41713;SDS011;27401;47.384;13.666;2023-08-07T07:04:30;0.00;;;0.00;;
41713;SDS011;27401;47.384;13.666;2023-08-07T07:06:56;0.10;;;0.08;;
41713;SDS011;27401;47.384;13.666;2023-08-07T07:09:22;0.52;;;0.10;;
41713;SDS011;27401;47.384;13.666;2023-08-07T07:11:47;0.00;;;0.00;;
41713;SDS011;27401;47.384;13.666;2023-08-07T07:14:13;0.13;;;0.13;;
41713;SDS011;27401;47.384;13.666;2023-08-07T07:16:38;0.38;;;0.17;;
41713;SDS011;27401;47.384;13.666;2023-08-07T07:19:04;0.40;;;0.10;;
41713;SDS011;27401;47.384;13.666;2023-08-07T07:21:33;0.30;;;0.30;;
41713;SDS011;27401;47.384;13.666;2023-08-07T07:23:59;1.15;;;0.17;;
41713;SDS011;27401;47.384;13.666;2023-08-07T07:26:26;0.10;;;0.10;;
41713;SDS011;27401;47.384;13.666;2023-08-07T07:28:51;0.20;;;0.13;;
41713;SDS011;27401;47.384;13.666;2023-08-07T07:31:17;0.20;;;0.20;;
41713;SDS011;27401;47.384;13.666;2023-08-07T07:33:42;0.55;;;0.40;;
41713;SDS011;27401;47.384;13.666;2023-08-07T07:36:13;0.80;;;0.40;;
41713;SDS011;27401;47.384;13.666;2023-08-07T07:38:40;0.30;;;0.25;;
41713;SDS011;27401;47.384;13.666;2023-08-07T07:41:05;0.40;;;0.32;;
41713;SDS011;27401;47.384;13.666;2023-08-07T07:43:35;0.93;;;0.20;;
41713;SDS011;27401;47.384;13.666;2023-08-07T07:46:01;0.20;;;0.20;;
41713;SDS011;27401;47.384;13.666;2023-08-07T07:48:26;0.50;;;0.30;;
41713;SDS011;27401;47.384;13.666;2023-08-07T07:50:57;0.52;;;0.50;;
41713;SDS011;27401;47.384;13.666;2023-08-07T07:53:24;0.47;;;0.43;;
41713;SDS011;27401;47.384;13.666;2023-08-07T07:55:49;0.82;;;0.38;;
41713;SDS011;27401;47.384;13.666;2023-08-07T07:58:15;0.40;;;0.40;;
41713;SDS011;27401;47.384;13.666;2023-08-07T08:00:40;0.50;;;0.50;;
41713;SDS011;27401;47.384;13.666;2023-08-07T08:03:07;0.68;;;0.68;;
41713;SDS011;27401;47.384;13.666;2023-08-07T08:05:33;2.15;;;0.50;;
41713;SDS011;27401;47.384;13.666;2023-08-07T08:08:00;0.50;;;0.50;;
41713;SDS011;27401;47.384;13.666;2023-08-07T08:10:26;0.45;;;0.45;;
41713;SDS011;27401;47.384;13.666;2023-08-07T08:12:54;2.72;;;2.15;;
41713;SDS011;27401;47.384;13.666;2023-08-07T08:15:20;2.88;;;1.00;;
41713;SDS011;27401;47.384;13.666;2023-08-07T08:17:46;3.70;;;3.35;;
41713;SDS011;27401;47.384;13.666;2023-08-07T08:20:12;1.88;;;0.88;;
41713;SDS011;27401;47.384;13.666;2023-08-07T08:22:41;2.00;;;0.50;;
41713;SDS011;27401;47.384;13.666;2023-08-07T08:25:06;1.33;;;0.80;;
41713;SDS011;27401;47.384;13.666;2023-08-07T08:27:32;0.40;;;0.40;;
41713;SDS011;27401;47.384;13.666;2023-08-07T08:29:57;0.32;;;0.30;;
41713;SDS011;27401;47.384;13.666;2023-08-07T08:32:23;0.20;;;0.20;;
41713;SDS011;27401;47.384;13.666;2023-08-07T08:34:49;0.50;;;0.50;;
41713;SDS011;27401;47.384;13.666;2023-08-07T08:37:15;1.00;;;0.70;;
41713;SDS011;27401;47.384;13.666;2023-08-07T08:39:40;7.50;;;5.50;;
41713;SDS011;27401;47.384;13.666;2023-08-07T08:42:08;16.00;;;9.10;;
41713;SDS011;27401;47.384;13.666;2023-08-07T08:44:36;21.90;;;15.93;;
41713;SDS011;27401;47.384;13.666;2023-08-07T08:47:04;3.22;;;2.92;;
41713;SDS011;27401;47.384;13.666;2023-08-07T08:49:35;0.75;;;0.73;;
41713;SDS011;27401;47.384;13.666;2023-08-07T08:52:02;0.50;;;0.50;;
41713;SDS011;27401;47.384;13.666;2023-08-07T08:54:28;0.28;;;0.28;;
41713;SDS011;27401;47.384;13.666;2023-08-07T08:56:54;0.68;;;0.68;;
41713;SDS011;27401;47.384;13.666;2023-08-07T08:59:21;1.75;;;1.30;;
41713;SDS011;27401;47.384;13.666;2023-08-07T09:01:46;1.70;;;0.50;;
41713;SDS011;27401;47.384;13.666;2023-08-07T09:04:13;0.60;;;0.60;;
41713;SDS011;27401;47.384;13.666;2023-08-07T09:06:39;2.05;;;1.95;;
41713;SDS011;27401;47.384;13.666;2023-08-07T09:09:05;3.10;;;2.90;;
41713;SDS011;27401;47.384;13.666;2023-08-07T09:11:32;1.60;;;1.50;;
41713;SDS011;27401;47.384;13.666;2023-08-07T09:13:59;0.70;;;0.70;;
41713;SDS011;27401;47.384;13.666;2023-08-07T09:16:25;2.08;;;0.60;;
41713;SDS011;27401;47.384;13.666;2023-08-07T09:18:51;1.52;;;0.80;;
41713;SDS011;27401;47.384;13.666;2023-08-07T09:21:19;0.85;;;0.75;;
41713;SDS011;27401;47.384;13.666;2023-08-07T09:23:46;1.20;;;0.70;;
41713;SDS011;27401;47.384;13.666;2023-08-07T09:26:11;1.27;;;0.68;;
41713;SDS011;27401;47.384;13.666;2023-08-07T09:28:37;1.02;;;0.50;;
41713;SDS011;27401;47.384;13.666;2023-08-07T09:31:05;0.60;;;0.50;;
41713;SDS011;27401;47.384;13.666;2023-08-07T09:33:31;0.45;;;0.35;;
41713;SDS011;27401;47.384;13.666;2023-08-07T09:35:58;1.73;;;0.75;;
41713;SDS011;27401;47.384;13.666;2023-08-07T09:38:26;1.25;;;0.60;;
41713;SDS011;27401;47.384;13.666;2023-08-07T09:40:53;0.77;;;0.55;;
41713;SDS011;27401;47.384;13.666;2023-08-07T09:43:22;2.85;;;0.60;;
41713;SDS011;27401;47.384;13.666;2023-08-07T09:45:48;1.02;;;0.70;;
41713;SDS011;27401;47.384;13.666;2023-08-07T09:48:23;0.60;;;0.60;;
41713;SDS011;27401;47.384;13.666;2023-08-07T09:50:53;2.13;;;0.93;;
41713;SDS011;27401;47.384;13.666;2023-08-07T09:53:24;0.65;;;0.60;;
41713;SDS011;27401;47.384;13.666;2023-08-07T09:55:52;0.90;;;0.60;;
41713;SDS011;27401;47.384;13.666;2023-08-07T09:58:18;0.68;;;0.60;;
41713;SDS011;27401;47.384;13.666;2023-08-07T10:00:43;0.95;;;0.70;;
41713;SDS011;27401;47.384;13.666;2023-08-07T10:03:11;0.82;;;0.80;;
41713;SDS011;27401;47.384;13.666;2023-08-07T10:05:38;1.58;;;0.70;;
41713;SDS011;27401;47.384;13.666;2023-08-07T10:08:03;0.88;;;0.82;;
41713;SDS011;27401;47.384;13.666;2023-08-07T10:10:31;0.65;;;0.65;;
41713;SDS011;27401;47.384;13.666;2023-08-07T10:12:59;0.95;;;0.70;;
41713;SDS011;27401;47.384;13.666;2023-08-07T10:15:26;1.65;;;0.70;;
41713;SDS011;27401;47.384;13.666;2023-08-07T10:17:52;1.35;;;0.82;;
41713;SDS011;27401;47.384;13.666;2023-08-07T10:20:18;0.73;;;0.70;;
41713;SDS011;27401;47.384;13.666;2023-08-07T10:22:43;0.55;;;0.55;;
41713;SDS011;27401;47.384;13.666;2023-08-07T10:25:10;0.82;;;0.82;;
41713;SDS011;27401;47.384;13.666;2023-08-07T10:27:37;0.90;;;0.80;;
41713;SDS011;27401;47.384;13.666;2023-08-07T10:30:09;0.60;;;0.60;;
41713;SDS011;27401;47.384;13.666;2023-08-07T10:32:37;0.95;;;0.75;;
41713;SDS011;27401;47.384;13.666;2023-08-07T10:35:03;1.38;;;1.27;;
41713;SDS011;27401;47.384;13.666;2023-08-07T10:37:42;1.00;;;0.90;;
41713;SDS011;27401;47.384;13.666;2023-08-07T10:40:10;1.17;;;0.93;;
41713;SDS011;27401;47.384;13.666;2023-08-07T10:42:52;0.80;;;0.70;;
41713;SDS011;27401;47.384;13.666;2023-08-07T10:45:25;1.60;;;0.77;;
41713;SDS011;27401;47.384;13.666;2023-08-07T10:48:01;1.23;;;0.90;;
41713;SDS011;27401;47.384;13.666;2023-08-07T10:50:31;0.85;;;0.82;;
41713;SDS011;27401;47.384;13.666;2023-08-07T10:52:59;1.25;;;1.13;;
41713;SDS011;27401;47.384;13.666;2023-08-07T10:55:42;0.90;;;0.90;;
41713;SDS011;27401;47.384;13.666;2023-08-07T10:58:20;3.10;;;1.00;;
41713;SDS011;27401;47.384;13.666;2023-08-07T11:00:48;0.80;;;0.70;;
41713;SDS011;27401;47.384;13.666;2023-08-07T11:03:20;2.15;;;0.75;;
41713;SDS011;27401;47.384;13.666;2023-08-07T11:05:51;2.25;;;0.70;;
41713;SDS011;27401;47.384;13.666;2023-08-07T11:08:21;0.65;;;0.65;;
41713;SDS011;27401;47.384;13.666;2023-08-07T11:10:47;1.05;;;0.95;;
41713;SDS011;27401;47.384;13.666;2023-08-07T11:13:13;0.63;;;0.57;;
41713;SDS011;27401;47.384;13.666;2023-08-07T11:15:38;1.85;;;0.88;;
41713;SDS011;27401;47.384;13.666;2023-08-07T11:18:04;1.42;;;0.98;;
41713;SDS011;27401;47.384;13.666;2023-08-07T11:20:30;1.30;;;0.80;;
41713;SDS011;27401;47.384;13.666;2023-08-07T11:22:55;0.80;;;0.80;;
41713;SDS011;27401;47.384;13.666;2023-08-07T11:25:21;0.63;;;0.55;;
41713;SDS011;27401;47.384;13.666;2023-08-07T11:27:46;1.83;;;1.30;;
41713;SDS011;27401;47.384;13.666;2023-08-07T11:30:12;2.22;;;0.95;;
41713;SDS011;27401;47.384;13.666;2023-08-07T11:32:37;2.25;;;1.00;;
41713;SDS011;27401;47.384;13.666;2023-08-07T11:35:03;1.02;;;0.88;;
41713;SDS011;27401;47.384;13.666;2023-08-07T11:37:30;2.05;;;1.00;;
41713;SDS011;27401;47.384;13.666;2023-08-07T11:40:04;0.88;;;0.70;;
41713;SDS011;27401;47.384;13.666;2023-08-07T11:42:31;0.90;;;0.82;;
41713;SDS011;27401;47.384;13.666;2023-08-07T11:44:56;0.90;;;0.68;;
41713;SDS011;27401;47.384;13.666;2023-08-07T11:47:22;0.75;;;0.75;;
41713;SDS011;27401;47.384;13.666;2023-08-07T11:49:47;1.13;;;0.90;;
41713;SDS011;27401;47.384;13.666;2023-08-07T11:52:13;1.20;;;0.75;;
41713;SDS011;27401;47.384;13.666;2023-08-07T11:54:39;0.63;;;0.60;;
41713;SDS011;27401;47.384;13.666;2023-08-07T11:57:15;1.25;;;1.13;;
41713;SDS011;27401;47.384;13.666;2023-08-07T11:59:42;3.17;;;1.95;;
41713;SDS011;27401;47.384;13.666;2023-08-07T12:02:11;1.83;;;1.05;;
41713;SDS011;27401;47.384;13.666;2023-08-07T12:04:38;1.30;;;1.10;;
41713;SDS011;27401;47.384;13.666;2023-08-07T12:07:04;1.23;;;0.95;;
41713;SDS011;27401;47.384;13.666;2023-08-07T12:09:29;1.00;;;0.90;;
41713;SDS011;27401;47.384;13.666;2023-08-07T12:11:56;2.13;;;0.88;;
41713;SDS011;27401;47.384;13.666;2023-08-07T12:14:22;1.23;;;0.98;;
41713;SDS011;27401;47.384;13.666;2023-08-07T12:16:48;0.77;;;0.70;;
41713;SDS011;27401;47.384;13.666;2023-08-07T12:19:15;2.25;;;0.70;;
41713;SDS011;27401;47.384;13.666;2023-08-07T12:21:41;2.00;;;0.80;;
41713;SDS011;27401;47.384;13.666;2023-08-07T12:24:07;0.68;;;0.68;;
41713;SDS011;27401;47.384;13.666;2023-08-07T12:26:33;0.70;;;0.60;;
41713;SDS011;27401;47.384;13.666;2023-08-07T12:28:58;0.60;;;0.60;;
41713;SDS011;27401;47.384;13.666;2023-08-07T12:31:24;0.80;;;0.80;;
41713;SDS011;27401;47.384;13.666;2023-08-07T12:33:49;0.88;;;0.75;;
41713;SDS011;27401;47.384;13.666;2023-08-07T12:36:15;4.80;;;0.88;;
41713;SDS011;27401;47.384;13.666;2023-08-07T12:38:40;1.50;;;0.77;;
41713;SDS011;27401;47.384;13.666;2023-08-07T12:41:06;1.73;;;0.70;;
41713;SDS011;27401;47.384;13.666;2023-08-07T12:43:32;1.23;;;0.95;;
41713;SDS011;27401;47.384;13.666;2023-08-07T12:45:58;0.93;;;0.70;;
41713;SDS011;27401;47.384;13.666;2023-08-07T12:48:24;1.67;;;1.00;;
41713;SDS011;27401;47.384;13.666;2023-08-07T12:50:52;0.93;;;0.60;;
41713;SDS011;27401;47.384;13.666;2023-08-07T12:53:18;1.67;;;0.90;;
41713;SDS011;27401;47.384;13.666;2023-08-07T12:55:46;1.25;;;0.80;;
41713;SDS011;27401;47.384;13.666;2023-08-07T12:58:12;1.65;;;1.02;;
41713;SDS011;27401;47.384;13.666;2023-08-07T13:00:37;0.80;;;0.80;;
41713;SDS011;27401;47.384;13.666;2023-08-07T13:03:03;1.73;;;0.70;;
41713;SDS011;27401;47.384;13.666;2023-08-07T13:05:28;1.88;;;1.08;;
41713;SDS011;27401;47.384;13.666;2023-08-07T13:07:56;2.45;;;0.85;;
41713;SDS011;27401;47.384;13.666;2023-08-07T13:10:23;1.52;;;0.70;;
41713;SDS011;27401;47.384;13.666;2023-08-07T13:12:49;0.98;;;0.70;;
41713;SDS011;27401;47.384;13.666;2023-08-07T13:15:15;1.17;;;0.77;;
41713;SDS011;27401;47.384;13.666;2023-08-07T13:17:41;2.10;;;1.40;;
41713;SDS011;27401;47.384;13.666;2023-08-07T13:20:08;2.25;;;2.05;;
41713;SDS011;27401;47.384;13.666;2023-08-07T13:22:34;2.28;;;0.80;;
41713;SDS011;27401;47.384;13.666;2023-08-07T13:25:01;0.80;;;0.80;;
41713;SDS011;27401;47.384;13.666;2023-08-07T13:27:29;1.38;;;0.90;;
41713;SDS011;27401;47.384;13.666;2023-08-07T13:29:55;1.15;;;0.70;;
41713;SDS011;27401;47.384;13.666;2023-08-07T13:32:20;1.30;;;1.20;;
41713;SDS011;27401;47.384;13.666;2023-08-07T13:34:46;0.75;;;0.75;;
41713;SDS011;27401;47.384;13.666;2023-08-07T13:37:12;4.82;;;4.18;;
41713;SDS011;27401;47.384;13.666;2023-08-07T13:39:38;1.92;;;1.83;;
41713;SDS011;27401;47.384;13.666;2023-08-07T13:42:04;1.75;;;1.08;;
41713;SDS011;27401;47.384;13.666;2023-08-07T13:44:29;1.02;;;0.70;;
41713;SDS011;27401;47.384;13.666;2023-08-07T13:46:55;1.17;;;0.90;;
41713;SDS011;27401;47.384;13.666;2023-08-07T13:49:23;1.98;;;0.90;;
41713;SDS011;27401;47.384;13.666;2023-08-07T13:51:49;0.80;;;0.80;;
41713;SDS011;27401;47.384;13.666;2023-08-07T13:54:15;1.05;;;0.55;;
41713;SDS011;27401;47.384;13.666;2023-08-07T13:56:41;1.48;;;1.20;;
41713;SDS011;27401;47.384;13.666;2023-08-07T13:59:06;1.63;;;0.93;;
41713;SDS011;27401;47.384;13.666;2023-08-07T14:01:33;1.88;;;1.10;;
41713;SDS011;27401;47.384;13.666;2023-08-07T14:04:00;0.68;;;0.68;;
41713;SDS011;27401;47.384;13.666;2023-08-07T14:06:28;2.67;;;0.90;;
41713;SDS011;27401;47.384;13.666;2023-08-07T14:08:54;1.10;;;0.55;;
41713;SDS011;27401;47.384;13.666;2023-08-07T14:11:19;1.63;;;0.90;;
41713;SDS011;27401;47.384;13.666;2023-08-07T14:13:45;3.63;;;0.93;;
41713;SDS011;27401;47.384;13.666;2023-08-07T14:16:11;0.80;;;0.75;;
41713;SDS011;27401;47.384;13.666;2023-08-07T14:18:37;1.05;;;0.70;;
41713;SDS011;27401;47.384;13.666;2023-08-07T14:21:03;0.80;;;0.73;;
41713;SDS011;27401;47.384;13.666;2023-08-07T14:23:29;1.52;;;0.70;;
41713;SDS011;27401;47.384;13.666;2023-08-07T14:25:55;1.20;;;0.70;;
41713;SDS011;27401;47.384;13.666;2023-08-07T14:28:20;1.20;;;0.63;;
41713;SDS011;27401;47.384;13.666;2023-08-07T14:30:47;1.85;;;0.70;;
41713;SDS011;27401;47.384;13.666;2023-08-07T14:33:12;0.50;;;0.50;;
41713;SDS011;27401;47.384;13.666;2023-08-07T14:35:38;1.63;;;0.60;;
41713;SDS011;27401;47.384;13.666;2023-08-07T14:38:03;0.80;;;0.65;;